createdAt,value
2018-09-27T00:02:05.742Z,99.90
2018-09-27T00:04:33.906Z,99.90
2018-09-27T00:07:02.630Z,99.90
2018-09-27T00:09:31.473Z,99.90
2018-09-27T00:11:59.974Z,99.90
2018-09-27T00:14:28.155Z,99.90
2018-09-27T00:16:56.326Z,99.90
2018-09-27T00:19:24.595Z,99.90
2018-09-27T00:22:01.488Z,99.90
2018-09-27T00:24:29.657Z,99.90
2018-09-27T00:26:57.876Z,99.90
2018-09-27T00:29:26.090Z,99.90
2018-09-27T00:31:54.250Z,99.90
2018-09-27T00:34:22.462Z,99.90
2018-09-27T00:36:50.658Z,99.90
2018-09-27T00:39:18.886Z,99.90
2018-09-27T00:41:47.447Z,99.90
2018-09-27T00:44:16.162Z,99.90
2018-09-27T00:46:44.374Z,99.90
2018-09-27T00:49:13.055Z,99.90
2018-09-27T00:54:17.343Z,99.90
2018-09-27T00:56:45.810Z,99.90
2018-09-27T00:59:14.072Z,99.90
2018-09-27T01:01:42.358Z,99.90
2018-09-27T01:04:10.962Z,99.90
2018-09-27T01:06:39.678Z,99.90
2018-09-27T01:09:08.950Z,99.90
2018-09-27T01:11:37.167Z,99.90
2018-09-27T01:14:05.821Z,99.90
2018-09-27T01:16:34.005Z,99.90
2018-09-27T01:19:02.146Z,99.90
2018-09-27T01:21:30.578Z,99.90
2018-09-27T01:23:58.930Z,99.90
2018-09-27T01:26:27.120Z,99.90
2018-09-27T01:28:55.310Z,99.90
2018-09-27T01:31:23.530Z,99.90
2018-09-27T01:33:52.330Z,99.90
2018-09-27T01:36:20.646Z,99.90
2018-09-27T01:38:49.287Z,99.90
2018-09-27T01:41:17.521Z,99.90
2018-09-27T01:43:45.687Z,99.90
2018-09-27T01:46:18.790Z,99.90
2018-09-27T01:48:46.974Z,99.90
2018-09-27T01:51:15.158Z,99.90
2018-09-27T01:53:43.358Z,99.90
2018-09-27T01:56:11.865Z,99.90
2018-09-27T01:58:40.086Z,99.90
2018-09-27T02:01:08.387Z,99.90
2018-09-27T02:03:36.556Z,99.90
2018-09-27T02:06:04.754Z,99.90
2018-09-27T02:08:32.978Z,99.90
2018-09-27T02:11:01.279Z,99.90
2018-09-27T02:13:30.425Z,99.90
2018-09-27T02:15:58.899Z,99.90
2018-09-27T02:18:27.088Z,99.90
2018-09-27T02:20:55.505Z,99.90
2018-09-27T02:23:23.694Z,99.90
2018-09-27T02:25:51.835Z,99.90
2018-09-27T02:28:20.011Z,99.90
2018-09-27T02:30:48.219Z,99.90
2018-09-27T02:33:16.518Z,99.90
2018-09-27T02:35:44.799Z,99.90
2018-09-27T02:38:13.310Z,99.90
2018-09-27T02:40:41.539Z,99.90
2018-09-27T02:43:09.770Z,99.90
2018-09-27T02:45:37.977Z,99.90
2018-09-27T02:48:06.161Z,99.90
2018-09-27T02:50:34.362Z,99.90
2018-09-27T02:53:02.608Z,99.90
2018-09-27T02:55:30.929Z,99.90
2018-09-27T02:57:59.735Z,99.90
2018-09-27T03:00:27.907Z,99.90
2018-09-27T03:02:56.111Z,99.90
2018-09-27T03:05:24.542Z,99.90
2018-09-27T03:07:52.731Z,99.90
2018-09-27T03:10:20.912Z,99.90
2018-09-27T03:12:49.139Z,99.90
2018-09-27T03:15:19.411Z,99.90
2018-09-27T03:17:47.698Z,99.90
2018-09-27T03:20:15.843Z,99.90
2018-09-27T03:22:44.062Z,99.90
2018-09-27T03:25:12.264Z,99.90
2018-09-27T03:27:40.443Z,99.90
2018-09-27T03:30:08.974Z,99.90
2018-09-27T03:32:37.743Z,99.90
2018-09-27T03:35:07.466Z,99.90
2018-09-27T03:37:35.597Z,99.90
2018-09-27T03:40:03.829Z,99.90
2018-09-27T03:42:32.382Z,99.90
2018-09-27T03:45:00.554Z,99.90
2018-09-27T03:47:28.765Z,99.90
2018-09-27T03:49:56.954Z,99.90
2018-09-27T03:52:25.106Z,99.90
2018-09-27T03:54:53.274Z,99.90
2018-09-27T03:57:23.375Z,99.90
2018-09-27T03:59:51.530Z,99.90
2018-09-27T04:02:19.759Z,99.90
2018-09-27T04:04:47.914Z,99.90
2018-09-27T04:07:21.167Z,99.90
2018-09-27T04:09:49.610Z,99.90
2018-09-27T04:12:17.834Z,99.90
2018-09-27T04:14:46.020Z,99.90
2018-09-27T04:17:14.195Z,99.90
2018-09-27T04:19:44.290Z,99.90
2018-09-27T04:22:13.429Z,99.90
2018-09-27T04:24:41.623Z,99.90
2018-09-27T04:27:09.806Z,99.90
2018-09-27T04:29:37.987Z,99.90
2018-09-27T04:32:06.165Z,99.90
2018-09-27T04:34:34.385Z,99.90
2018-09-27T04:37:02.578Z,99.90
2018-09-27T04:39:30.890Z,99.90
2018-09-27T04:41:59.065Z,99.90
2018-09-27T04:44:27.243Z,99.90
2018-09-27T04:46:55.486Z,99.90
2018-09-27T04:49:23.731Z,99.90
2018-09-27T04:51:51.943Z,99.90
2018-09-27T04:54:20.143Z,99.90
2018-09-27T04:56:49.098Z,99.90
2018-09-27T04:59:17.318Z,99.90
2018-09-27T05:01:45.621Z,99.90
2018-09-27T05:04:13.794Z,99.90
2018-09-27T05:06:41.988Z,99.90
2018-09-27T05:09:10.258Z,99.90
2018-09-27T05:11:39.330Z,99.90
2018-09-27T05:14:07.912Z,99.90
2018-09-27T05:16:36.083Z,99.90
2018-09-27T05:19:05.294Z,99.90
2018-09-27T05:21:33.753Z,99.90
2018-09-27T05:24:01.966Z,99.90
2018-09-27T05:26:32.097Z,99.90
2018-09-27T05:29:00.320Z,99.90
2018-09-27T05:31:28.501Z,99.90
2018-09-27T05:33:56.702Z,99.90
2018-09-27T05:36:25.165Z,99.90
2018-09-27T05:38:53.628Z,99.90
2018-09-27T05:41:21.787Z,99.90
2018-09-27T05:43:50.836Z,99.90
2018-09-27T05:46:18.998Z,99.90
2018-09-27T05:48:47.218Z,99.90
2018-09-27T05:51:15.629Z,99.90
2018-09-27T05:53:43.806Z,99.90
2018-09-27T05:56:12.027Z,99.90
2018-09-27T05:58:40.190Z,99.90
2018-09-27T06:01:08.427Z,99.90
2018-09-27T06:03:36.643Z,99.90
2018-09-27T06:06:05.696Z,99.90
2018-09-27T06:08:34.810Z,99.90
2018-09-27T06:11:03.000Z,99.90
2018-09-27T06:13:33.815Z,99.90
2018-09-27T06:16:02.006Z,99.90
2018-09-27T06:18:30.218Z,99.90
2018-09-27T06:20:58.517Z,99.90
2018-09-27T06:23:27.577Z,99.90
2018-09-27T06:25:55.778Z,99.90
2018-09-27T06:28:23.918Z,99.90
2018-09-27T06:30:59.146Z,99.90
2018-09-27T06:33:27.395Z,99.90
2018-09-27T06:35:57.547Z,99.90
2018-09-27T06:38:32.107Z,99.90
2018-09-27T06:41:00.759Z,99.90
2018-09-27T06:43:29.730Z,99.90
2018-09-27T06:45:58.189Z,99.90
2018-09-27T06:48:26.939Z,99.90
2018-09-27T06:50:55.378Z,99.90
2018-09-27T06:53:23.584Z,99.90
2018-09-27T06:55:51.861Z,99.90
2018-09-27T06:58:19.942Z,99.90
2018-09-27T07:00:48.183Z,99.90
2018-09-27T07:03:16.427Z,99.90
2018-09-27T07:05:45.447Z,99.90
2018-09-27T07:08:13.638Z,99.90
2018-09-27T07:10:42.642Z,99.90
2018-09-27T07:13:10.842Z,99.90
2018-09-27T07:15:39.048Z,99.90
2018-09-27T07:18:07.223Z,99.90
2018-09-27T07:20:35.412Z,99.90
2018-09-27T07:23:03.830Z,99.90
2018-09-27T07:25:32.012Z,99.90
2018-09-27T07:28:00.430Z,99.90
2018-09-27T07:30:28.680Z,99.90
2018-09-27T07:32:56.830Z,99.90
2018-09-27T07:38:08.138Z,99.90
2018-09-27T07:40:36.379Z,99.90
2018-09-27T07:43:05.550Z,99.90
2018-09-27T07:45:33.749Z,99.90
2018-09-27T07:48:01.942Z,99.90
2018-09-27T07:50:30.168Z,99.90
2018-09-27T07:52:58.299Z,99.90
2018-09-27T07:55:27.255Z,99.90
2018-09-27T07:57:55.466Z,99.90
2018-09-27T08:00:23.694Z,99.90
2018-09-27T08:02:51.937Z,99.90
2018-09-27T08:05:20.767Z,99.90
2018-09-27T08:07:48.959Z,99.90
2018-09-27T08:10:17.142Z,99.90
2018-09-27T08:12:45.322Z,99.90
2018-09-27T08:15:13.506Z,99.90
2018-09-27T08:17:41.703Z,99.90
2018-09-27T08:20:09.889Z,99.90
2018-09-27T08:22:38.102Z,99.90
2018-09-27T08:25:06.366Z,99.90
2018-09-27T08:27:34.606Z,99.90
2018-09-27T08:30:02.895Z,99.90
2018-09-27T08:32:31.251Z,99.90
2018-09-27T08:34:59.554Z,99.90
2018-09-27T08:37:27.726Z,99.90
2018-09-27T08:39:55.938Z,99.90
2018-09-27T08:42:24.720Z,99.90
2018-09-27T08:44:52.933Z,99.90
2018-09-27T08:47:21.054Z,99.90
2018-09-27T08:49:49.263Z,99.90
2018-09-27T08:52:17.461Z,99.90
2018-09-27T08:54:46.299Z,99.90
2018-09-27T08:57:14.890Z,99.90
2018-09-27T08:59:43.242Z,99.90
2018-09-27T09:02:11.954Z,99.90
2018-09-27T09:04:40.130Z,99.90
2018-09-27T09:07:09.270Z,99.90
2018-09-27T09:09:37.486Z,99.90
2018-09-27T09:12:05.720Z,99.90
2018-09-27T09:14:34.494Z,99.90
2018-09-27T09:17:02.701Z,99.90
2018-09-27T09:19:30.936Z,99.90
2018-09-27T09:21:59.119Z,99.90
2018-09-27T09:24:27.367Z,99.90
2018-09-27T09:26:55.511Z,99.90
2018-09-27T09:29:23.682Z,99.90
2018-09-27T09:31:51.856Z,99.90
2018-09-27T09:34:20.710Z,99.90
2018-09-27T09:36:48.870Z,99.90
2018-09-27T09:39:17.042Z,99.90
2018-09-27T09:41:45.270Z,99.90
2018-09-27T09:44:13.463Z,99.90
2018-09-27T09:46:41.684Z,99.90
2018-09-27T09:49:09.872Z,99.90
2018-09-27T09:51:38.050Z,99.90
2018-09-27T09:54:08.247Z,99.90
2018-09-27T09:56:36.439Z,99.90
2018-09-27T09:59:04.658Z,99.90
2018-09-27T10:01:32.887Z,99.90
2018-09-27T10:04:01.195Z,99.90
2018-09-27T10:06:30.022Z,99.90
2018-09-27T10:08:58.226Z,99.90
2018-09-27T10:11:26.414Z,99.90
2018-09-27T10:14:00.578Z,99.90
2018-09-27T10:16:28.805Z,99.90
2018-09-27T10:18:56.997Z,99.60
2018-09-27T10:21:25.513Z,99.00
2018-09-27T10:23:53.716Z,98.50
2018-09-27T10:26:22.675Z,98.10
2018-09-27T10:28:50.887Z,98.30
2018-09-27T10:31:19.707Z,98.50
2018-09-27T10:33:47.885Z,97.70
2018-09-27T10:36:16.213Z,96.60
2018-09-27T10:38:44.967Z,96.20
2018-09-27T10:41:13.134Z,96.10
2018-09-27T10:43:42.067Z,95.90
2018-09-27T10:46:10.334Z,95.80
2018-09-27T10:48:38.518Z,95.80
2018-09-27T10:51:06.899Z,94.50
2018-09-27T10:53:35.250Z,93.30
2018-09-27T10:56:05.286Z,92.50
2018-09-27T10:58:33.446Z,91.80
2018-09-27T11:01:12.850Z,92.00
2018-09-27T11:03:41.588Z,91.00
2018-09-27T11:06:09.770Z,90.70
2018-09-27T11:08:37.975Z,90.20
2018-09-27T11:11:06.872Z,89.80
2018-09-27T11:13:35.025Z,89.70
2018-09-27T11:16:03.282Z,87.40
2018-09-27T11:18:31.447Z,87.40
2018-09-27T11:20:59.601Z,86.10
2018-09-27T11:23:27.997Z,86.10
2018-09-27T11:25:56.181Z,83.50
2018-09-27T11:28:24.389Z,84.30
2018-09-27T11:30:58.030Z,81.60
2018-09-27T11:33:26.234Z,82.00
2018-09-27T11:35:54.421Z,81.60
2018-09-27T11:38:22.622Z,81.50
2018-09-27T11:40:51.242Z,79.50
2018-09-27T11:43:19.429Z,78.70
2018-09-27T11:45:47.795Z,79.60
2018-09-27T11:48:16.320Z,81.50
2018-09-27T11:50:44.461Z,80.60
2018-09-27T11:53:12.700Z,80.10
2018-09-27T11:55:40.957Z,78.60
2018-09-27T11:58:09.126Z,78.50
2018-09-27T12:00:37.521Z,80.50
2018-09-27T12:03:06.266Z,81.80
2018-09-27T12:05:34.931Z,81.90
2018-09-27T12:08:03.142Z,78.10
2018-09-27T12:10:31.555Z,80.70
2018-09-27T12:13:00.330Z,79.80
2018-09-27T12:15:29.378Z,80.60
2018-09-27T12:18:03.694Z,79.60
2018-09-27T12:20:33.814Z,80.70
2018-09-27T12:23:03.394Z,81.30
2018-09-27T12:25:32.124Z,79.20
2018-09-27T12:28:01.002Z,79.80
2018-09-27T12:30:29.235Z,78.20
2018-09-27T12:32:58.162Z,78.10
2018-09-27T12:35:26.358Z,80.10
2018-09-27T12:37:55.457Z,78.90
2018-09-27T12:40:24.499Z,78.90
2018-09-27T12:42:52.972Z,77.30
2018-09-27T12:45:21.160Z,76.10
2018-09-27T12:47:49.395Z,75.20
2018-09-27T12:50:17.526Z,74.20
2018-09-27T12:52:45.791Z,73.80
2018-09-27T12:55:14.074Z,73.30
2018-09-27T12:57:42.316Z,73.80
2018-09-27T13:00:10.522Z,76.40
2018-09-27T13:02:38.793Z,73.30
2018-09-27T13:05:07.862Z,73.30
2018-09-27T13:07:36.047Z,72.90
2018-09-27T13:10:04.426Z,73.50
2018-09-27T13:12:32.969Z,72.80
2018-09-27T13:15:03.853Z,71.40
2018-09-27T13:17:32.023Z,71.40
2018-09-27T13:20:00.303Z,70.50
2018-09-27T13:22:28.354Z,71.70
2018-09-27T13:24:56.517Z,70.90
2018-09-27T13:27:24.707Z,70.00
2018-09-27T13:29:52.901Z,71.80
2018-09-27T13:32:21.309Z,71.80
2018-09-27T13:34:49.494Z,71.80
2018-09-27T13:37:17.695Z,69.70
2018-09-27T13:39:46.016Z,68.40
2018-09-27T13:42:14.265Z,66.80
2018-09-27T13:44:42.471Z,68.70
2018-09-27T13:47:10.716Z,66.10
2018-09-27T13:49:39.670Z,67.70
2018-09-27T13:52:08.330Z,67.30
2018-09-27T13:54:36.958Z,68.40
2018-09-27T13:57:05.231Z,65.60
2018-09-27T13:59:34.309Z,65.10
2018-09-27T14:02:02.508Z,65.50
2018-09-27T14:04:30.842Z,65.20
2018-09-27T14:06:59.100Z,66.20
2018-09-27T14:09:27.288Z,65.90
2018-09-27T14:11:55.495Z,64.40
2018-09-27T14:14:23.860Z,63.60
2018-09-27T14:16:53.487Z,61.30
2018-09-27T14:19:21.654Z,63.40
2018-09-27T14:21:50.242Z,61.10
2018-09-27T14:24:18.424Z,60.70
2018-09-27T14:26:46.768Z,59.50
2018-09-27T14:29:14.941Z,59.10
2018-09-27T14:31:43.131Z,61.00
2018-09-27T14:34:11.943Z,61.20
2018-09-27T14:36:40.182Z,61.10
2018-09-27T14:39:09.330Z,61.50
2018-09-27T14:41:37.582Z,62.10
2018-09-27T14:44:12.684Z,62.50
2018-09-27T14:46:40.909Z,60.60
2018-09-27T14:49:09.190Z,60.80
2018-09-27T14:51:37.430Z,60.60
2018-09-27T14:54:05.622Z,59.30
2018-09-27T14:56:33.962Z,59.10
2018-09-27T14:59:02.146Z,59.20
2018-09-27T15:01:30.303Z,59.60
2018-09-27T15:03:58.482Z,59.00
2018-09-27T15:06:26.894Z,59.20
2018-09-27T15:08:55.095Z,58.70
2018-09-27T15:11:23.278Z,59.10
2018-09-27T15:13:51.502Z,59.80
2018-09-27T15:16:20.488Z,59.70
2018-09-27T15:18:48.634Z,59.90
2018-09-27T15:21:16.833Z,60.50
2018-09-27T15:23:45.780Z,59.80
2018-09-27T15:26:13.959Z,60.00
2018-09-27T15:28:42.141Z,60.70
2018-09-27T15:31:10.377Z,61.70
2018-09-27T15:33:40.734Z,61.60
2018-09-27T15:36:08.922Z,60.40
2018-09-27T15:38:37.133Z,60.90
2018-09-27T15:41:05.382Z,61.70
2018-09-27T15:43:33.680Z,61.30
2018-09-27T15:46:01.877Z,62.30
2018-09-27T15:48:31.950Z,61.60
2018-09-27T15:51:00.638Z,62.00
2018-09-27T15:53:28.896Z,61.60
2018-09-27T15:55:57.086Z,61.70
2018-09-27T15:58:25.292Z,62.40
2018-09-27T16:00:53.498Z,62.40
2018-09-27T16:03:21.722Z,62.70
2018-09-27T16:05:49.927Z,64.50
2018-09-27T16:08:18.528Z,64.80
2018-09-27T16:10:46.758Z,65.30
2018-09-27T16:13:14.935Z,67.80
2018-09-27T16:15:43.603Z,70.90
2018-09-27T16:18:11.743Z,73.10
2018-09-27T16:20:40.705Z,75.50
2018-09-27T16:23:09.310Z,77.00
2018-09-27T16:25:37.470Z,79.40
2018-09-27T16:28:05.629Z,80.70
2018-09-27T16:30:33.804Z,82.20
2018-09-27T16:33:01.970Z,83.70
2018-09-27T16:35:30.279Z,84.30
2018-09-27T16:37:59.098Z,85.30
2018-09-27T16:40:27.299Z,86.50
2018-09-27T16:42:55.419Z,87.50
2018-09-27T16:45:24.027Z,88.20
2018-09-27T16:47:52.435Z,88.90
2018-09-27T16:50:20.584Z,89.70
2018-09-27T16:52:48.742Z,90.30
2018-09-27T16:55:16.971Z,90.90
2018-09-27T16:57:45.263Z,91.40
2018-09-27T17:00:13.443Z,92.00
2018-09-27T17:02:41.915Z,92.30
2018-09-27T17:05:10.046Z,93.00
2018-09-27T17:07:38.225Z,93.90
2018-09-27T17:10:06.602Z,94.80
2018-09-27T17:12:34.973Z,95.70
2018-09-27T17:15:03.157Z,96.80
2018-09-27T17:17:32.305Z,97.80
2018-09-27T17:20:01.167Z,98.20
2018-09-27T17:22:29.378Z,99.00
2018-09-27T17:24:58.188Z,99.90
2018-09-27T17:27:26.766Z,99.90
2018-09-27T17:29:54.982Z,99.90
2018-09-27T17:32:23.179Z,99.90
2018-09-27T17:34:51.382Z,99.90
2018-09-27T17:37:20.262Z,99.90
2018-09-27T17:39:48.707Z,99.90
2018-09-27T17:42:16.921Z,99.90
2018-09-27T17:44:45.936Z,99.90
2018-09-27T17:47:14.447Z,99.90
2018-09-27T17:49:42.657Z,99.90
2018-09-27T17:52:10.806Z,99.90
2018-09-27T17:54:46.038Z,99.90
2018-09-27T17:57:17.728Z,99.90
2018-09-27T17:59:45.911Z,99.90
2018-09-27T18:02:14.106Z,99.90
2018-09-27T18:04:42.795Z,99.90
2018-09-27T18:07:10.853Z,99.90
2018-09-27T18:09:39.036Z,99.90
2018-09-27T18:12:07.518Z,99.90
2018-09-27T18:14:35.943Z,99.90
2018-09-27T18:17:04.155Z,99.90
2018-09-27T18:19:32.518Z,99.90
2018-09-27T18:22:00.657Z,99.90
2018-09-27T18:24:29.302Z,99.90
2018-09-27T18:26:57.517Z,99.90
2018-09-27T18:29:25.722Z,99.90
2018-09-27T18:31:53.951Z,99.90
2018-09-27T18:34:22.120Z,99.90
2018-09-27T18:36:50.298Z,99.90
2018-09-27T18:39:18.474Z,99.90
2018-09-27T18:41:46.663Z,99.90
2018-09-27T18:44:14.854Z,99.90
2018-09-27T18:46:43.076Z,99.90
2018-09-27T18:49:11.499Z,99.90
2018-09-27T18:51:40.928Z,99.90
2018-09-27T18:54:09.174Z,99.90
2018-09-27T18:56:37.882Z,99.90
2018-09-27T18:59:06.197Z,99.90
2018-09-27T19:01:34.395Z,99.90
2018-09-27T19:04:02.574Z,99.90
2018-09-27T19:06:30.865Z,99.90
2018-09-27T19:08:59.167Z,99.90
2018-09-27T19:11:27.386Z,99.90
2018-09-27T19:13:55.622Z,99.90
2018-09-27T19:16:23.806Z,99.90
2018-09-27T19:18:52.920Z,99.90
2018-09-27T19:21:21.098Z,99.90
2018-09-27T19:23:49.270Z,99.90
2018-09-27T19:26:17.442Z,99.90
2018-09-27T19:28:45.698Z,99.90
2018-09-27T19:31:13.960Z,99.90
2018-09-27T19:33:42.438Z,99.90
2018-09-27T19:36:10.608Z,99.90
2018-09-27T19:38:38.778Z,99.90
2018-09-27T19:41:06.993Z,99.90
2018-09-27T19:43:35.163Z,99.90
2018-09-27T19:46:04.226Z,99.90
2018-09-27T19:48:32.715Z,99.90
2018-09-27T19:51:01.254Z,99.90
2018-09-27T19:53:30.207Z,99.90
2018-09-27T19:55:58.506Z,99.90
2018-09-27T19:58:27.257Z,99.90
2018-09-27T20:00:55.398Z,99.90
2018-09-27T20:03:25.544Z,99.90
2018-09-27T20:05:53.731Z,99.90
2018-09-27T20:08:22.306Z,99.90
2018-09-27T20:10:56.894Z,99.90
2018-09-27T20:13:26.891Z,99.90
2018-09-27T20:15:56.598Z,99.90
2018-09-27T20:18:25.238Z,99.90
2018-09-27T20:20:53.483Z,99.90
2018-09-27T20:23:21.678Z,99.90
2018-09-27T20:25:49.906Z,99.90
2018-09-27T20:28:18.109Z,99.90
2018-09-27T20:30:46.425Z,99.90
2018-09-27T20:33:15.345Z,99.90
2018-09-27T20:35:44.044Z,99.90
2018-09-27T20:38:12.192Z,99.90
2018-09-27T20:40:41.106Z,99.90
2018-09-27T20:43:09.256Z,99.90
2018-09-27T20:45:37.442Z,99.90
2018-09-27T20:48:05.636Z,99.90
2018-09-27T20:50:33.866Z,99.90
2018-09-27T20:53:02.098Z,99.90
2018-09-27T20:55:32.001Z,99.90
2018-09-27T20:58:00.702Z,99.90
2018-09-27T21:00:29.003Z,99.90
2018-09-27T21:02:58.041Z,99.90
2018-09-27T21:05:26.217Z,99.90
2018-09-27T21:07:54.386Z,99.90
2018-09-27T21:10:22.556Z,99.90
2018-09-27T21:12:50.930Z,99.90
2018-09-27T21:15:19.122Z,99.90
2018-09-27T21:17:48.276Z,99.90
2018-09-27T21:20:16.686Z,99.90
2018-09-27T21:22:44.862Z,99.90
2018-09-27T21:25:13.395Z,99.90
2018-09-27T21:27:43.070Z,99.90
2018-09-27T21:30:11.279Z,99.90
2018-09-27T21:32:40.393Z,99.90
2018-09-27T21:35:08.601Z,99.90
2018-09-27T21:37:36.782Z,99.90
2018-09-27T21:40:05.439Z,99.90
2018-09-27T21:42:33.659Z,99.90
2018-09-27T21:45:02.539Z,99.90
2018-09-27T21:47:30.710Z,99.90
2018-09-27T21:49:58.998Z,99.90
2018-09-27T21:52:27.062Z,99.90
2018-09-27T21:54:55.370Z,99.90
2018-09-27T21:57:24.981Z,99.90
2018-09-27T21:59:54.638Z,99.90
2018-09-27T22:02:22.823Z,99.90
2018-09-27T22:04:51.057Z,99.90
2018-09-27T22:07:19.235Z,99.90
2018-09-27T22:09:47.522Z,99.90
2018-09-27T22:12:15.744Z,99.90
2018-09-27T22:14:43.929Z,99.90
2018-09-27T22:17:12.835Z,99.90
2018-09-27T22:19:41.194Z,99.90
2018-09-27T22:22:09.373Z,99.90
2018-09-27T22:24:37.569Z,99.90
2018-09-27T22:27:05.810Z,99.90
2018-09-27T22:29:33.977Z,99.90
2018-09-27T22:32:02.170Z,99.90
2018-09-27T22:34:37.206Z,99.90
2018-09-27T22:37:05.446Z,99.90
2018-09-27T22:39:33.594Z,99.90
2018-09-27T22:42:03.055Z,99.90
2018-09-27T22:44:31.314Z,99.90
2018-09-27T22:46:59.793Z,99.90
2018-09-27T22:49:29.106Z,99.90
2018-09-27T22:51:57.314Z,99.90
2018-09-27T22:54:25.487Z,99.90
2018-09-27T22:56:53.886Z,99.90
2018-09-27T22:59:22.878Z,99.90
2018-09-27T23:01:54.578Z,99.90
2018-09-27T23:04:23.082Z,99.90
2018-09-27T23:06:51.235Z,99.90
2018-09-27T23:09:20.571Z,99.90
2018-09-27T23:11:48.926Z,99.90
2018-09-27T23:14:17.122Z,99.90
2018-09-27T23:16:45.332Z,99.90
2018-09-27T23:19:13.510Z,99.90
2018-09-27T23:21:41.717Z,99.90
2018-09-27T23:24:09.902Z,99.90
2018-09-27T23:26:38.122Z,99.90
2018-09-27T23:29:06.290Z,99.90
2018-09-27T23:31:34.471Z,99.90
2018-09-27T23:34:02.686Z,99.90
2018-09-27T23:36:30.929Z,99.90
2018-09-27T23:38:59.206Z,99.90
2018-09-27T23:41:27.370Z,99.90
2018-09-27T23:43:55.560Z,99.90
2018-09-27T23:46:23.717Z,99.90
2018-09-27T23:48:51.894Z,99.90
2018-09-27T23:51:20.098Z,99.90
2018-09-27T23:53:55.090Z,99.90
2018-09-27T23:56:25.053Z,99.90
2018-09-27T23:58:53.264Z,99.90
